sensor_id;sensor_type;location;lat;lon;timestamp;P1;durP1;ratioP1;P2;durP2;ratioP2
8260;SDS011;64115;50.170;8.242;2024-01-30T00:00:05;5.10;;;4.53;;
8260;SDS011;64115;50.170;8.242;2024-01-30T00:02:34;5.33;;;4.20;;
8260;SDS011;64115;50.170;8.242;2024-01-30T00:05:01;4.63;;;4.17;;
8260;SDS011;64115;50.170;8.242;2024-01-30T00:07:28;4.97;;;4.50;;
8260;SDS011;64115;50.170;8.242;2024-01-30T00:09:56;5.20;;;4.20;;
8260;SDS011;64115;50.170;8.242;2024-01-30T00:12:23;4.83;;;4.33;;
8260;SDS011;64115;50.170;8.242;2024-01-30T00:14:50;6.20;;;4.63;;
8260;SDS011;64115;50.170;8.242;2024-01-30T00:17:17;5.03;;;4.27;;
8260;SDS011;64115;50.170;8.242;2024-01-30T00:19:45;6.97;;;4.53;;
8260;SDS011;64115;50.170;8.242;2024-01-30T00:22:12;4.97;;;4.17;;
8260;SDS011;64115;50.170;8.242;2024-01-30T00:24:39;8.67;;;5.10;;
8260;SDS011;64115;50.170;8.242;2024-01-30T00:27:07;6.03;;;4.60;;
8260;SDS011;64115;50.170;8.242;2024-01-30T00:29:34;4.47;;;4.07;;
8260;SDS011;64115;50.170;8.242;2024-01-30T00:32:01;5.70;;;4.17;;
8260;SDS011;64115;50.170;8.242;2024-01-30T00:34:28;4.50;;;4.10;;
8260;SDS011;64115;50.170;8.242;2024-01-30T00:36:54;4.97;;;4.27;;
8260;SDS011;64115;50.170;8.242;2024-01-30T00:39:21;5.27;;;4.20;;
8260;SDS011;64115;50.170;8.242;2024-01-30T00:41:48;4.53;;;4.13;;
8260;SDS011;64115;50.170;8.242;2024-01-30T00:44:16;4.57;;;3.80;;
8260;SDS011;64115;50.170;8.242;2024-01-30T00:46:43;6.17;;;4.27;;
8260;SDS011;64115;50.170;8.242;2024-01-30T00:49:10;6.83;;;4.17;;
8260;SDS011;64115;50.170;8.242;2024-01-30T00:51:37;4.20;;;3.87;;
8260;SDS011;64115;50.170;8.242;2024-01-30T00:54:03;5.83;;;4.30;;
8260;SDS011;64115;50.170;8.242;2024-01-30T00:56:31;5.00;;;4.37;;
8260;SDS011;64115;50.170;8.242;2024-01-30T00:58:58;5.03;;;4.53;;
8260;SDS011;64115;50.170;8.242;2024-01-30T01:01:26;6.03;;;4.53;;
8260;SDS011;64115;50.170;8.242;2024-01-30T01:03:53;5.47;;;4.60;;
8260;SDS011;64115;50.170;8.242;2024-01-30T01:06:19;5.83;;;4.80;;
8260;SDS011;64115;50.170;8.242;2024-01-30T01:08:46;5.17;;;4.50;;
8260;SDS011;64115;50.170;8.242;2024-01-30T01:11:15;5.57;;;4.47;;
8260;SDS011;64115;50.170;8.242;2024-01-30T01:13:42;5.73;;;4.53;;
8260;SDS011;64115;50.170;8.242;2024-01-30T01:16:09;5.13;;;4.63;;
8260;SDS011;64115;50.170;8.242;2024-01-30T01:18:37;5.00;;;4.60;;
8260;SDS011;64115;50.170;8.242;2024-01-30T01:21:04;4.70;;;4.30;;
8260;SDS011;64115;50.170;8.242;2024-01-30T01:23:31;5.83;;;4.83;;
8260;SDS011;64115;50.170;8.242;2024-01-30T01:25:57;5.00;;;4.40;;
8260;SDS011;64115;50.170;8.242;2024-01-30T01:28:24;6.37;;;4.83;;
8260;SDS011;64115;50.170;8.242;2024-01-30T01:30:52;5.60;;;4.37;;
8260;SDS011;64115;50.170;8.242;2024-01-30T01:33:18;6.90;;;4.60;;
8260;SDS011;64115;50.170;8.242;2024-01-30T01:35:46;6.57;;;4.70;;
8260;SDS011;64115;50.170;8.242;2024-01-30T01:38:13;4.97;;;4.47;;
8260;SDS011;64115;50.170;8.242;2024-01-30T01:40:40;5.37;;;4.37;;
8260;SDS011;64115;50.170;8.242;2024-01-30T01:43:10;9.27;;;4.40;;
8260;SDS011;64115;50.170;8.242;2024-01-30T01:45:37;5.53;;;4.70;;
8260;SDS011;64115;50.170;8.242;2024-01-30T01:48:04;4.87;;;4.37;;
8260;SDS011;64115;50.170;8.242;2024-01-30T01:50:33;6.07;;;4.40;;
8260;SDS011;64115;50.170;8.242;2024-01-30T01:53:01;6.37;;;4.43;;
8260;SDS011;64115;50.170;8.242;2024-01-30T01:55:29;5.10;;;4.60;;
8260;SDS011;64115;50.170;8.242;2024-01-30T01:57:57;4.77;;;4.37;;
8260;SDS011;64115;50.170;8.242;2024-01-30T02:00:24;6.07;;;4.60;;
8260;SDS011;64115;50.170;8.242;2024-01-30T02:02:51;4.83;;;4.37;;
8260;SDS011;64115;50.170;8.242;2024-01-30T02:05:19;5.27;;;4.30;;
8260;SDS011;64115;50.170;8.242;2024-01-30T02:07:46;5.10;;;4.50;;
8260;SDS011;64115;50.170;8.242;2024-01-30T02:10:14;6.20;;;4.67;;
8260;SDS011;64115;50.170;8.242;2024-01-30T02:12:41;5.93;;;4.40;;
8260;SDS011;64115;50.170;8.242;2024-01-30T02:15:08;5.63;;;4.50;;
8260;SDS011;64115;50.170;8.242;2024-01-30T02:17:39;8.03;;;4.60;;
8260;SDS011;64115;50.170;8.242;2024-01-30T02:20:06;5.90;;;4.60;;
8260;SDS011;64115;50.170;8.242;2024-01-30T02:22:35;4.80;;;4.27;;
8260;SDS011;64115;50.170;8.242;2024-01-30T02:25:03;6.97;;;4.30;;
8260;SDS011;64115;50.170;8.242;2024-01-30T02:27:30;5.60;;;5.10;;
8260;SDS011;64115;50.170;8.242;2024-01-30T02:29:57;6.17;;;4.60;;
8260;SDS011;64115;50.170;8.242;2024-01-30T02:32:24;5.20;;;4.70;;
8260;SDS011;64115;50.170;8.242;2024-01-30T02:34:50;5.30;;;4.80;;
8260;SDS011;64115;50.170;8.242;2024-01-30T02:37:17;8.57;;;4.83;;
8260;SDS011;64115;50.170;8.242;2024-01-30T02:39:45;4.80;;;4.40;;
8260;SDS011;64115;50.170;8.242;2024-01-30T02:42:12;5.10;;;4.40;;
8260;SDS011;64115;50.170;8.242;2024-01-30T02:44:39;7.80;;;4.80;;
8260;SDS011;64115;50.170;8.242;2024-01-30T02:47:05;5.67;;;4.73;;
8260;SDS011;64115;50.170;8.242;2024-01-30T02:49:33;6.73;;;5.43;;
8260;SDS011;64115;50.170;8.242;2024-01-30T02:52:00;7.07;;;5.00;;
8260;SDS011;64115;50.170;8.242;2024-01-30T02:54:27;5.70;;;4.93;;
8260;SDS011;64115;50.170;8.242;2024-01-30T02:56:57;7.83;;;5.07;;
8260;SDS011;64115;50.170;8.242;2024-01-30T02:59:23;6.07;;;4.90;;
8260;SDS011;64115;50.170;8.242;2024-01-30T03:01:50;5.70;;;5.10;;
8260;SDS011;64115;50.170;8.242;2024-01-30T03:04:17;6.47;;;5.23;;
8260;SDS011;64115;50.170;8.242;2024-01-30T03:06:44;6.80;;;5.37;;
8260;SDS011;64115;50.170;8.242;2024-01-30T03:09:12;7.93;;;5.17;;
8260;SDS011;64115;50.170;8.242;2024-01-30T03:11:38;5.47;;;4.97;;
8260;SDS011;64115;50.170;8.242;2024-01-30T03:14:06;5.40;;;4.90;;
8260;SDS011;64115;50.170;8.242;2024-01-30T03:16:36;7.47;;;5.37;;
8260;SDS011;64115;50.170;8.242;2024-01-30T03:19:02;5.70;;;5.20;;
8260;SDS011;64115;50.170;8.242;2024-01-30T03:21:30;6.00;;;5.40;;
8260;SDS011;64115;50.170;8.242;2024-01-30T03:23:56;7.90;;;5.60;;
8260;SDS011;64115;50.170;8.242;2024-01-30T03:26:24;7.30;;;5.37;;
8260;SDS011;64115;50.170;8.242;2024-01-30T03:28:51;5.53;;;5.03;;
8260;SDS011;64115;50.170;8.242;2024-01-30T03:31:19;6.27;;;5.40;;
8260;SDS011;64115;50.170;8.242;2024-01-30T03:33:46;5.47;;;4.83;;
8260;SDS011;64115;50.170;8.242;2024-01-30T03:36:12;5.83;;;5.30;;
8260;SDS011;64115;50.170;8.242;2024-01-30T03:38:41;7.37;;;5.47;;
8260;SDS011;64115;50.170;8.242;2024-01-30T03:41:08;8.17;;;5.17;;
8260;SDS011;64115;50.170;8.242;2024-01-30T03:43:35;6.30;;;5.47;;
8260;SDS011;64115;50.170;8.242;2024-01-30T03:46:02;6.27;;;4.93;;
8260;SDS011;64115;50.170;8.242;2024-01-30T03:48:30;7.20;;;5.30;;
8260;SDS011;64115;50.170;8.242;2024-01-30T03:50:57;5.77;;;5.20;;
8260;SDS011;64115;50.170;8.242;2024-01-30T03:53:24;5.33;;;4.63;;
8260;SDS011;64115;50.170;8.242;2024-01-30T03:55:50;5.87;;;4.80;;
8260;SDS011;64115;50.170;8.242;2024-01-30T03:58:17;8.07;;;5.63;;
8260;SDS011;64115;50.170;8.242;2024-01-30T04:00:44;6.23;;;5.63;;
8260;SDS011;64115;50.170;8.242;2024-01-30T04:03:14;7.03;;;5.37;;
8260;SDS011;64115;50.170;8.242;2024-01-30T04:05:45;8.10;;;5.50;;
8260;SDS011;64115;50.170;8.242;2024-01-30T04:08:12;7.10;;;5.50;;
8260;SDS011;64115;50.170;8.242;2024-01-30T04:10:39;7.67;;;6.00;;
8260;SDS011;64115;50.170;8.242;2024-01-30T04:13:06;6.30;;;5.27;;
8260;SDS011;64115;50.170;8.242;2024-01-30T04:15:33;7.50;;;6.03;;
8260;SDS011;64115;50.170;8.242;2024-01-30T04:18:00;10.17;;;6.00;;
8260;SDS011;64115;50.170;8.242;2024-01-30T04:20:27;6.43;;;5.60;;
8260;SDS011;64115;50.170;8.242;2024-01-30T04:22:55;6.77;;;6.17;;
8260;SDS011;64115;50.170;8.242;2024-01-30T04:25:22;7.07;;;5.50;;
8260;SDS011;64115;50.170;8.242;2024-01-30T04:27:48;9.40;;;5.83;;
8260;SDS011;64115;50.170;8.242;2024-01-30T04:30:15;7.27;;;5.47;;
8260;SDS011;64115;50.170;8.242;2024-01-30T04:32:42;5.90;;;5.40;;
8260;SDS011;64115;50.170;8.242;2024-01-30T04:35:09;6.67;;;5.80;;
8260;SDS011;64115;50.170;8.242;2024-01-30T04:37:36;9.03;;;6.23;;
8260;SDS011;64115;50.170;8.242;2024-01-30T04:40:05;7.53;;;6.00;;
8260;SDS011;64115;50.170;8.242;2024-01-30T04:42:33;7.10;;;6.40;;
8260;SDS011;64115;50.170;8.242;2024-01-30T04:45:00;7.43;;;6.43;;
8260;SDS011;64115;50.170;8.242;2024-01-30T04:47:27;6.60;;;5.90;;
8260;SDS011;64115;50.170;8.242;2024-01-30T04:49:54;7.37;;;6.47;;
8260;SDS011;64115;50.170;8.242;2024-01-30T04:52:21;7.73;;;6.40;;
8260;SDS011;64115;50.170;8.242;2024-01-30T04:54:48;6.67;;;5.60;;
8260;SDS011;64115;50.170;8.242;2024-01-30T04:57:16;7.50;;;6.10;;
8260;SDS011;64115;50.170;8.242;2024-01-30T04:59:42;8.73;;;6.27;;
8260;SDS011;64115;50.170;8.242;2024-01-30T05:02:09;8.93;;;6.70;;
8260;SDS011;64115;50.170;8.242;2024-01-30T05:04:36;8.07;;;6.17;;
8260;SDS011;64115;50.170;8.242;2024-01-30T05:07:03;6.77;;;6.07;;
8260;SDS011;64115;50.170;8.242;2024-01-30T05:09:30;6.70;;;6.07;;
8260;SDS011;64115;50.170;8.242;2024-01-30T05:11:57;6.70;;;6.10;;
8260;SDS011;64115;50.170;8.242;2024-01-30T05:14:25;6.90;;;6.00;;
8260;SDS011;64115;50.170;8.242;2024-01-30T05:16:52;7.50;;;5.93;;
8260;SDS011;64115;50.170;8.242;2024-01-30T05:19:18;9.93;;;6.73;;
8260;SDS011;64115;50.170;8.242;2024-01-30T05:21:46;8.30;;;5.93;;
8260;SDS011;64115;50.170;8.242;2024-01-30T05:24:13;10.67;;;6.23;;
8260;SDS011;64115;50.170;8.242;2024-01-30T05:26:40;7.87;;;6.10;;
8260;SDS011;64115;50.170;8.242;2024-01-30T05:29:07;6.90;;;6.20;;
8260;SDS011;64115;50.170;8.242;2024-01-30T05:31:35;8.10;;;6.33;;
8260;SDS011;64115;50.170;8.242;2024-01-30T05:34:01;11.30;;;6.43;;
8260;SDS011;64115;50.170;8.242;2024-01-30T05:36:28;6.87;;;6.17;;
8260;SDS011;64115;50.170;8.242;2024-01-30T05:38:55;7.87;;;5.90;;
8260;SDS011;64115;50.170;8.242;2024-01-30T05:41:22;6.60;;;6.00;;
8260;SDS011;64115;50.170;8.242;2024-01-30T05:43:49;10.07;;;6.17;;
8260;SDS011;64115;50.170;8.242;2024-01-30T05:46:16;6.97;;;5.83;;
8260;SDS011;64115;50.170;8.242;2024-01-30T05:48:44;6.30;;;5.60;;
8260;SDS011;64115;50.170;8.242;2024-01-30T05:51:10;8.60;;;5.90;;
8260;SDS011;64115;50.170;8.242;2024-01-30T05:53:37;8.47;;;5.83;;
8260;SDS011;64115;50.170;8.242;2024-01-30T05:56:05;6.47;;;5.50;;
8260;SDS011;64115;50.170;8.242;2024-01-30T05:58:32;5.83;;;5.23;;
8260;SDS011;64115;50.170;8.242;2024-01-30T06:00:59;9.73;;;6.30;;
8260;SDS011;64115;50.170;8.242;2024-01-30T06:03:25;7.90;;;5.93;;
8260;SDS011;64115;50.170;8.242;2024-01-30T06:05:53;7.07;;;5.93;;
8260;SDS011;64115;50.170;8.242;2024-01-30T06:08:20;7.30;;;6.13;;
8260;SDS011;64115;50.170;8.242;2024-01-30T06:10:47;6.83;;;5.87;;
8260;SDS011;64115;50.170;8.242;2024-01-30T06:13:14;7.67;;;5.77;;
8260;SDS011;64115;50.170;8.242;2024-01-30T06:15:41;6.57;;;5.80;;
8260;SDS011;64115;50.170;8.242;2024-01-30T06:18:07;7.10;;;6.13;;
8260;SDS011;64115;50.170;8.242;2024-01-30T06:20:34;7.80;;;5.73;;
8260;SDS011;64115;50.170;8.242;2024-01-30T06:23:03;7.13;;;5.50;;
8260;SDS011;64115;50.170;8.242;2024-01-30T06:25:30;7.97;;;6.60;;
8260;SDS011;64115;50.170;8.242;2024-01-30T06:27:57;10.10;;;6.17;;
8260;SDS011;64115;50.170;8.242;2024-01-30T06:30:23;7.03;;;6.27;;
8260;SDS011;64115;50.170;8.242;2024-01-30T06:32:50;8.00;;;6.47;;
8260;SDS011;64115;50.170;8.242;2024-01-30T06:35:17;8.83;;;5.83;;
8260;SDS011;64115;50.170;8.242;2024-01-30T06:37:44;6.53;;;5.73;;
8260;SDS011;64115;50.170;8.242;2024-01-30T06:40:13;8.20;;;5.70;;
8260;SDS011;64115;50.170;8.242;2024-01-30T06:42:40;8.03;;;5.70;;
8260;SDS011;64115;50.170;8.242;2024-01-30T06:45:07;7.40;;;6.30;;
8260;SDS011;64115;50.170;8.242;2024-01-30T06:47:34;6.23;;;5.63;;
8260;SDS011;64115;50.170;8.242;2024-01-30T06:50:01;7.63;;;6.40;;
8260;SDS011;64115;50.170;8.242;2024-01-30T06:52:28;7.00;;;6.33;;
8260;SDS011;64115;50.170;8.242;2024-01-30T06:54:55;9.23;;;6.60;;
8260;SDS011;64115;50.170;8.242;2024-01-30T06:57:23;7.47;;;5.93;;
8260;SDS011;64115;50.170;8.242;2024-01-30T06:59:52;6.97;;;6.27;;
8260;SDS011;64115;50.170;8.242;2024-01-30T07:02:21;8.23;;;6.57;;
8260;SDS011;64115;50.170;8.242;2024-01-30T07:04:48;7.50;;;6.80;;
8260;SDS011;64115;50.170;8.242;2024-01-30T07:07:15;6.97;;;5.90;;
8260;SDS011;64115;50.170;8.242;2024-01-30T07:09:42;7.50;;;5.77;;
8260;SDS011;64115;50.170;8.242;2024-01-30T07:12:09;7.53;;;6.63;;
8260;SDS011;64115;50.170;8.242;2024-01-30T07:14:37;8.53;;;6.30;;
8260;SDS011;64115;50.170;8.242;2024-01-30T07:17:04;7.67;;;6.87;;
8260;SDS011;64115;50.170;8.242;2024-01-30T07:19:32;8.93;;;6.40;;
8260;SDS011;64115;50.170;8.242;2024-01-30T07:22:00;10.20;;;6.80;;
8260;SDS011;64115;50.170;8.242;2024-01-30T07:24:26;7.90;;;6.43;;
8260;SDS011;64115;50.170;8.242;2024-01-30T07:26:53;7.63;;;6.27;;
8260;SDS011;64115;50.170;8.242;2024-01-30T07:29:20;9.33;;;6.77;;
8260;SDS011;64115;50.170;8.242;2024-01-30T07:31:49;8.37;;;6.70;;
8260;SDS011;64115;50.170;8.242;2024-01-30T07:34:16;7.83;;;6.17;;
8260;SDS011;64115;50.170;8.242;2024-01-30T07:36:43;7.67;;;6.03;;
8260;SDS011;64115;50.170;8.242;2024-01-30T07:39:12;7.20;;;6.10;;
8260;SDS011;64115;50.170;8.242;2024-01-30T07:41:39;8.20;;;6.13;;
8260;SDS011;64115;50.170;8.242;2024-01-30T07:44:06;7.27;;;5.67;;
8260;SDS011;64115;50.170;8.242;2024-01-30T07:46:33;12.27;;;5.77;;
8260;SDS011;64115;50.170;8.242;2024-01-30T07:49:01;7.47;;;5.67;;
8260;SDS011;64115;50.170;8.242;2024-01-30T07:51:28;6.57;;;5.50;;
8260;SDS011;64115;50.170;8.242;2024-01-30T07:53:57;6.93;;;5.70;;
8260;SDS011;64115;50.170;8.242;2024-01-30T07:56:24;8.00;;;5.90;;
8260;SDS011;64115;50.170;8.242;2024-01-30T07:58:50;6.50;;;5.90;;
8260;SDS011;64115;50.170;8.242;2024-01-30T08:01:18;7.20;;;5.90;;
8260;SDS011;64115;50.170;8.242;2024-01-30T08:03:45;7.33;;;6.30;;
8260;SDS011;64115;50.170;8.242;2024-01-30T08:06:13;7.17;;;5.80;;
8260;SDS011;64115;50.170;8.242;2024-01-30T08:08:40;6.80;;;5.97;;
8260;SDS011;64115;50.170;8.242;2024-01-30T08:11:07;7.83;;;6.27;;
8260;SDS011;64115;50.170;8.242;2024-01-30T08:13:34;7.90;;;6.33;;
8260;SDS011;64115;50.170;8.242;2024-01-30T08:16:01;7.23;;;6.33;;
8260;SDS011;64115;50.170;8.242;2024-01-30T08:18:28;7.80;;;6.23;;
8260;SDS011;64115;50.170;8.242;2024-01-30T08:20:55;6.53;;;5.90;;
8260;SDS011;64115;50.170;8.242;2024-01-30T08:23:23;7.03;;;6.03;;
8260;SDS011;64115;50.170;8.242;2024-01-30T08:25:50;6.37;;;5.77;;
8260;SDS011;64115;50.170;8.242;2024-01-30T08:28:17;6.90;;;6.00;;
8260;SDS011;64115;50.170;8.242;2024-01-30T08:30:44;6.30;;;5.70;;
8260;SDS011;64115;50.170;8.242;2024-01-30T08:33:11;6.50;;;5.90;;
8260;SDS011;64115;50.170;8.242;2024-01-30T08:35:38;6.20;;;5.60;;
8260;SDS011;64115;50.170;8.242;2024-01-30T08:38:05;7.03;;;5.13;;
8260;SDS011;64115;50.170;8.242;2024-01-30T08:40:34;5.70;;;5.10;;
8260;SDS011;64115;50.170;8.242;2024-01-30T08:43:01;7.40;;;5.33;;
8260;SDS011;64115;50.170;8.242;2024-01-30T08:45:29;6.83;;;5.30;;
8260;SDS011;64115;50.170;8.242;2024-01-30T08:47:56;5.70;;;4.93;;
8260;SDS011;64115;50.170;8.242;2024-01-30T08:50:23;5.57;;;4.87;;
8260;SDS011;64115;50.170;8.242;2024-01-30T08:52:50;6.63;;;5.17;;
8260;SDS011;64115;50.170;8.242;2024-01-30T08:55:18;5.60;;;5.10;;
8260;SDS011;64115;50.170;8.242;2024-01-30T08:57:46;6.57;;;4.27;;
8260;SDS011;64115;50.170;8.242;2024-01-30T09:00:14;4.70;;;4.23;;
8260;SDS011;64115;50.170;8.242;2024-01-30T09:02:41;4.90;;;4.30;;
8260;SDS011;64115;50.170;8.242;2024-01-30T09:05:09;4.80;;;4.40;;
8260;SDS011;64115;50.170;8.242;2024-01-30T09:07:36;4.87;;;4.23;;
8260;SDS011;64115;50.170;8.242;2024-01-30T09:10:03;4.70;;;4.30;;
8260;SDS011;64115;50.170;8.242;2024-01-30T09:12:32;4.70;;;4.30;;
8260;SDS011;64115;50.170;8.242;2024-01-30T09:15:04;4.37;;;3.97;;
8260;SDS011;64115;50.170;8.242;2024-01-30T09:17:32;5.90;;;4.87;;
8260;SDS011;64115;50.170;8.242;2024-01-30T09:19:59;5.50;;;4.70;;
8260;SDS011;64115;50.170;8.242;2024-01-30T09:22:27;6.97;;;4.67;;
8260;SDS011;64115;50.170;8.242;2024-01-30T09:24:54;4.80;;;4.40;;
8260;SDS011;64115;50.170;8.242;2024-01-30T09:27:21;4.47;;;4.13;;
8260;SDS011;64115;50.170;8.242;2024-01-30T09:29:48;5.30;;;4.07;;
8260;SDS011;64115;50.170;8.242;2024-01-30T09:32:17;4.67;;;4.20;;
8260;SDS011;64115;50.170;8.242;2024-01-30T09:34:44;6.53;;;4.40;;
8260;SDS011;64115;50.170;8.242;2024-01-30T09:37:12;5.57;;;4.20;;
8260;SDS011;64115;50.170;8.242;2024-01-30T09:39:40;5.83;;;4.17;;
8260;SDS011;64115;50.170;8.242;2024-01-30T09:42:10;6.93;;;4.60;;
8260;SDS011;64115;50.170;8.242;2024-01-30T09:44:47;4.97;;;4.53;;
8260;SDS011;64115;50.170;8.242;2024-01-30T09:47:19;4.73;;;4.33;;
8260;SDS011;64115;50.170;8.242;2024-01-30T09:49:46;4.77;;;4.33;;
8260;SDS011;64115;50.170;8.242;2024-01-30T09:52:15;4.87;;;4.47;;
8260;SDS011;64115;50.170;8.242;2024-01-30T09:54:42;5.70;;;4.77;;
8260;SDS011;64115;50.170;8.242;2024-01-30T09:57:11;5.53;;;4.17;;
8260;SDS011;64115;50.170;8.242;2024-01-30T09:59:38;5.63;;;4.90;;
8260;SDS011;64115;50.170;8.242;2024-01-30T10:02:05;6.07;;;5.30;;
8260;SDS011;64115;50.170;8.242;2024-01-30T10:04:35;5.20;;;4.70;;
8260;SDS011;64115;50.170;8.242;2024-01-30T10:07:02;4.53;;;4.13;;
8260;SDS011;64115;50.170;8.242;2024-01-30T10:09:31;5.27;;;4.33;;
8260;SDS011;64115;50.170;8.242;2024-01-30T10:11:59;5.03;;;4.43;;
8260;SDS011;64115;50.170;8.242;2024-01-30T10:14:28;4.67;;;4.27;;
8260;SDS011;64115;50.170;8.242;2024-01-30T10:16:57;5.17;;;4.27;;
8260;SDS011;64115;50.170;8.242;2024-01-30T10:19:24;5.33;;;4.63;;
8260;SDS011;64115;50.170;8.242;2024-01-30T10:21:53;5.07;;;4.57;;
8260;SDS011;64115;50.170;8.242;2024-01-30T10:24:23;5.67;;;4.40;;
8260;SDS011;64115;50.170;8.242;2024-01-30T10:26:51;6.97;;;4.73;;
8260;SDS011;64115;50.170;8.242;2024-01-30T10:29:19;4.80;;;4.33;;
8260;SDS011;64115;50.170;8.242;2024-01-30T10:31:45;5.03;;;4.63;;
8260;SDS011;64115;50.170;8.242;2024-01-30T10:34:13;5.87;;;4.73;;
8260;SDS011;64115;50.170;8.242;2024-01-30T10:36:40;5.10;;;4.60;;
8260;SDS011;64115;50.170;8.242;2024-01-30T10:39:09;6.50;;;4.73;;
8260;SDS011;64115;50.170;8.242;2024-01-30T10:41:37;6.50;;;4.37;;
8260;SDS011;64115;50.170;8.242;2024-01-30T10:44:09;6.03;;;4.37;;
8260;SDS011;64115;50.170;8.242;2024-01-30T10:46:37;5.90;;;4.30;;
8260;SDS011;64115;50.170;8.242;2024-01-30T10:49:05;5.13;;;4.70;;
8260;SDS011;64115;50.170;8.242;2024-01-30T10:51:32;4.93;;;4.17;;
8260;SDS011;64115;50.170;8.242;2024-01-30T10:54:02;6.47;;;5.17;;
8260;SDS011;64115;50.170;8.242;2024-01-30T10:56:33;5.40;;;4.60;;
8260;SDS011;64115;50.170;8.242;2024-01-30T10:59:01;4.73;;;4.43;;
8260;SDS011;64115;50.170;8.242;2024-01-30T11:01:29;5.07;;;4.57;;
8260;SDS011;64115;50.170;8.242;2024-01-30T11:03:56;7.00;;;5.40;;
8260;SDS011;64115;50.170;8.242;2024-01-30T11:06:24;6.60;;;5.03;;
8260;SDS011;64115;50.170;8.242;2024-01-30T11:09:01;7.37;;;5.23;;
8260;SDS011;64115;50.170;8.242;2024-01-30T11:11:37;7.13;;;5.20;;
8260;SDS011;64115;50.170;8.242;2024-01-30T11:14:16;5.27;;;4.77;;
8260;SDS011;64115;50.170;8.242;2024-01-30T11:16:50;5.97;;;4.80;;
8260;SDS011;64115;50.170;8.242;2024-01-30T11:19:22;6.93;;;4.87;;
8260;SDS011;64115;50.170;8.242;2024-01-30T11:21:50;5.30;;;4.80;;
8260;SDS011;64115;50.170;8.242;2024-01-30T11:24:19;5.20;;;4.67;;
8260;SDS011;64115;50.170;8.242;2024-01-30T11:26:49;5.03;;;4.53;;
8260;SDS011;64115;50.170;8.242;2024-01-30T11:29:16;5.13;;;4.30;;
8260;SDS011;64115;50.170;8.242;2024-01-30T11:31:51;5.00;;;4.27;;
8260;SDS011;64115;50.170;8.242;2024-01-30T11:34:19;8.77;;;5.00;;
8260;SDS011;64115;50.170;8.242;2024-01-30T11:36:47;5.57;;;4.80;;
8260;SDS011;64115;50.170;8.242;2024-01-30T11:39:18;5.17;;;4.50;;
8260;SDS011;64115;50.170;8.242;2024-01-30T11:41:49;7.70;;;4.70;;
8260;SDS011;64115;50.170;8.242;2024-01-30T11:44:18;6.27;;;4.50;;
8260;SDS011;64115;50.170;8.242;2024-01-30T11:46:46;5.77;;;4.70;;
8260;SDS011;64115;50.170;8.242;2024-01-30T11:49:14;4.70;;;4.30;;
8260;SDS011;64115;50.170;8.242;2024-01-30T11:51:43;5.60;;;4.83;;
8260;SDS011;64115;50.170;8.242;2024-01-30T11:54:13;5.30;;;4.87;;
8260;SDS011;64115;50.170;8.242;2024-01-30T11:56:41;4.93;;;4.37;;
8260;SDS011;64115;50.170;8.242;2024-01-30T11:59:10;5.20;;;4.57;;
8260;SDS011;64115;50.170;8.242;2024-01-30T12:01:38;5.80;;;4.60;;
8260;SDS011;64115;50.170;8.242;2024-01-30T12:04:17;4.67;;;4.27;;
8260;SDS011;64115;50.170;8.242;2024-01-30T12:06:44;6.47;;;5.03;;
8260;SDS011;64115;50.170;8.242;2024-01-30T12:09:11;6.53;;;5.00;;
8260;SDS011;64115;50.170;8.242;2024-01-30T12:11:44;5.20;;;4.70;;
8260;SDS011;64115;50.170;8.242;2024-01-30T12:14:13;5.40;;;4.90;;
8260;SDS011;64115;50.170;8.242;2024-01-30T12:16:41;5.00;;;4.50;;
8260;SDS011;64115;50.170;8.242;2024-01-30T12:19:08;4.43;;;4.03;;
8260;SDS011;64115;50.170;8.242;2024-01-30T12:21:35;6.03;;;4.40;;
8260;SDS011;64115;50.170;8.242;2024-01-30T12:24:04;4.83;;;4.30;;
8260;SDS011;64115;50.170;8.242;2024-01-30T12:26:32;4.70;;;4.20;;
8260;SDS011;64115;50.170;8.242;2024-01-30T12:28:59;6.07;;;4.10;;
8260;SDS011;64115;50.170;8.242;2024-01-30T12:31:28;5.23;;;4.23;;
8260;SDS011;64115;50.170;8.242;2024-01-30T12:33:59;4.70;;;4.00;;
8260;SDS011;64115;50.170;8.242;2024-01-30T12:36:26;4.57;;;4.17;;
8260;SDS011;64115;50.170;8.242;2024-01-30T12:38:56;6.27;;;4.40;;
8260;SDS011;64115;50.170;8.242;2024-01-30T12:41:23;5.83;;;4.07;;
8260;SDS011;64115;50.170;8.242;2024-01-30T12:43:53;5.77;;;4.23;;
8260;SDS011;64115;50.170;8.242;2024-01-30T12:46:21;4.87;;;3.77;;
8260;SDS011;64115;50.170;8.242;2024-01-30T12:48:53;5.77;;;4.30;;
8260;SDS011;64115;50.170;8.242;2024-01-30T12:51:20;4.60;;;4.20;;
8260;SDS011;64115;50.170;8.242;2024-01-30T12:53:47;5.43;;;4.50;;
8260;SDS011;64115;50.170;8.242;2024-01-30T12:56:15;5.00;;;4.30;;
8260;SDS011;64115;50.170;8.242;2024-01-30T12:58:42;5.90;;;4.63;;
8260;SDS011;64115;50.170;8.242;2024-01-30T13:01:09;4.60;;;4.17;;
8260;SDS011;64115;50.170;8.242;2024-01-30T13:03:37;5.07;;;4.57;;
8260;SDS011;64115;50.170;8.242;2024-01-30T13:06:06;8.33;;;4.40;;
8260;SDS011;64115;50.170;8.242;2024-01-30T13:08:33;5.63;;;4.50;;
8260;SDS011;64115;50.170;8.242;2024-01-30T13:11:00;5.27;;;4.80;;
8260;SDS011;64115;50.170;8.242;2024-01-30T13:13:28;5.67;;;5.07;;
8260;SDS011;64115;50.170;8.242;2024-01-30T13:15:55;9.30;;;4.90;;
8260;SDS011;64115;50.170;8.242;2024-01-30T13:18:22;4.70;;;4.23;;
8260;SDS011;64115;50.170;8.242;2024-01-30T13:20:49;4.93;;;4.33;;
8260;SDS011;64115;50.170;8.242;2024-01-30T13:23:18;6.73;;;4.77;;
8260;SDS011;64115;50.170;8.242;2024-01-30T13:25:45;5.17;;;4.77;;
8260;SDS011;64115;50.170;8.242;2024-01-30T13:28:13;8.57;;;4.80;;
8260;SDS011;64115;50.170;8.242;2024-01-30T13:30:40;5.47;;;4.40;;
8260;SDS011;64115;50.170;8.242;2024-01-30T13:33:07;5.93;;;4.67;;
8260;SDS011;64115;50.170;8.242;2024-01-30T13:35:34;5.17;;;4.70;;
8260;SDS011;64115;50.170;8.242;2024-01-30T13:38:01;6.33;;;5.23;;
8260;SDS011;64115;50.170;8.242;2024-01-30T13:40:30;6.37;;;5.30;;
8260;SDS011;64115;50.170;8.242;2024-01-30T13:42:57;5.37;;;4.87;;
8260;SDS011;64115;50.170;8.242;2024-01-30T13:45:24;6.53;;;5.13;;
8260;SDS011;64115;50.170;8.242;2024-01-30T13:47:52;7.10;;;5.07;;
8260;SDS011;64115;50.170;8.242;2024-01-30T13:50:19;6.97;;;5.60;;
8260;SDS011;64115;50.170;8.242;2024-01-30T13:52:47;5.50;;;5.00;;
8260;SDS011;64115;50.170;8.242;2024-01-30T13:55:14;5.07;;;4.50;;
8260;SDS011;64115;50.170;8.242;2024-01-30T13:57:43;6.50;;;5.40;;
8260;SDS011;64115;50.170;8.242;2024-01-30T14:00:10;5.97;;;4.90;;
8260;SDS011;64115;50.170;8.242;2024-01-30T14:02:41;5.80;;;5.07;;
8260;SDS011;64115;50.170;8.242;2024-01-30T14:05:09;5.73;;;5.17;;
8260;SDS011;64115;50.170;8.242;2024-01-30T14:07:36;6.77;;;5.13;;
8260;SDS011;64115;50.170;8.242;2024-01-30T14:10:06;7.70;;;5.37;;
8260;SDS011;64115;50.170;8.242;2024-01-30T14:12:33;5.77;;;5.20;;
8260;SDS011;64115;50.170;8.242;2024-01-30T14:15:02;6.77;;;5.13;;
8260;SDS011;64115;50.170;8.242;2024-01-30T14:17:29;5.60;;;5.10;;
8260;SDS011;64115;50.170;8.242;2024-01-30T14:19:56;5.87;;;5.23;;
8260;SDS011;64115;50.170;8.242;2024-01-30T14:22:23;5.17;;;4.77;;
8260;SDS011;64115;50.170;8.242;2024-01-30T14:24:51;5.80;;;5.20;;
8260;SDS011;64115;50.170;8.242;2024-01-30T14:27:18;7.17;;;5.50;;
8260;SDS011;64115;50.170;8.242;2024-01-30T14:29:45;7.07;;;5.37;;
8260;SDS011;64115;50.170;8.242;2024-01-30T14:32:13;6.73;;;5.33;;
8260;SDS011;64115;50.170;8.242;2024-01-30T14:34:40;6.83;;;5.20;;
8260;SDS011;64115;50.170;8.242;2024-01-30T14:37:07;6.67;;;4.93;;
8260;SDS011;64115;50.170;8.242;2024-01-30T14:39:35;5.43;;;4.93;;
8260;SDS011;64115;50.170;8.242;2024-01-30T14:42:15;6.53;;;5.00;;
8260;SDS011;64115;50.170;8.242;2024-01-30T14:44:42;6.17;;;5.40;;
8260;SDS011;64115;50.170;8.242;2024-01-30T14:47:09;5.93;;;5.43;;
8260;SDS011;64115;50.170;8.242;2024-01-30T14:49:39;5.77;;;5.07;;
8260;SDS011;64115;50.170;8.242;2024-01-30T14:52:06;7.60;;;5.30;;
8260;SDS011;64115;50.170;8.242;2024-01-30T14:54:35;6.20;;;5.60;;
8260;SDS011;64115;50.170;8.242;2024-01-30T14:57:03;6.20;;;5.47;;
8260;SDS011;64115;50.170;8.242;2024-01-30T14:59:30;9.57;;;6.17;;
8260;SDS011;64115;50.170;8.242;2024-01-30T15:01:59;6.60;;;5.90;;